Time;durP1;ratioP1;P1;durP2;ratioP2;P2;SDS_P1;SDS_P2;PMS_P1;PMS_P2;Temp;Humidity;BMP_temperature;BMP_pressure;BME280_temperature;BME280_humidity;BME280_pressure;Samples;Min_cycle;Max_cycle;Signal;HPM_P1;HPM_P2
2024/03/20 00:02:28;;;;;;;;;;;;;;;5.05;64.01;96449.47;7396657;19;1847;-68
2024/03/20 00:04:56;;;;;;;;;;;;;;;5.06;63.35;96456.34;7396334;19;1131;-66
2024/03/20 00:07:28;;;;;;;;;;;;;;;5.03;62.32;96451.22;7396558;19;1940;-65
2024/03/20 00:09:57;;;;;;;;;;;;;;;4.92;61.77;96463.50;7396087;19;1169;-69
2024/03/20 00:12:25;;;;;;;;;;;;;;;4.86;61.83;96451.50;7395977;19;1041;-67
2024/03/20 00:14:55;;;;;;;;;;;;;;;4.82;61.55;96457.63;7395652;19;1848;-65
2024/03/20 00:17:24;;;;;;;;;;;;;;;4.75;60.63;96463.78;7396106;19;1188;-65
2024/03/20 00:19:54;;;;;;;;;;;;;;;4.75;58.96;96454.28;7395654;19;1066;-69
2024/03/20 00:22:22;;;;;;;;;;;;;;;4.68;58.90;96455.25;7395442;19;1034;-70
2024/03/20 00:24:53;;;;;;;;;;;;;;;4.53;58.38;96457.22;7396278;19;1755;-66
2024/03/20 00:27:22;;;;;;;;;;;;;;;4.44;57.86;96454.75;7395399;19;1000;-65
2024/03/20 00:29:51;;;;;;;;;;;;;;;4.31;56.91;96451.50;7395350;19;1151;-65
2024/03/20 00:32:20;;;;;;;;;;;;;;;4.30;57.08;96452.34;7395228;19;1085;-70
2024/03/20 00:34:48;;;;;;;;;;;;;;;4.17;55.95;96449.94;7395467;19;2007;-65
2024/03/20 00:37:17;;;;;;;;;;;;;;;4.10;55.98;96437.97;7393899;19;1861;-67
2024/03/20 00:39:45;;;;;;;;;;;;;;;4.08;56.07;96442.31;7395480;19;1004;-65
2024/03/20 00:42:17;;;;;;;;;;;;;;;4.11;55.50;96444.00;7394931;19;1137;-63
2024/03/20 00:44:45;;;;;;;;;;;;;;;4.05;55.53;96432.00;7393707;19;1033;-65
2024/03/20 00:47:14;;;;;;;;;;;;;;;4.00;54.67;96432.03;7394808;19;1279;-65
2024/03/20 00:49:42;;;;;;;;;;;;;;;4.01;55.42;96431.16;7395197;19;1030;-63
2024/03/20 00:52:11;;;;;;;;;;;;;;;3.89;54.74;96431.34;7394654;19;1401;-69
2024/03/20 00:54:40;;;;;;;;;;;;;;;3.82;54.76;96433.13;7394990;19;1891;-66
2024/03/20 00:57:09;;;;;;;;;;;;;;;3.83;54.74;96427.13;7393305;19;1982;-66
2024/03/20 00:59:40;;;;;;;;;;;;;;;3.84;54.23;96431.41;7394777;19;1783;-68
2024/03/20 01:02:09;;;;;;;;;;;;;;;3.95;54.48;96438.16;7394344;19;1025;-65
2024/03/20 01:04:37;;;;;;;;;;;;;;;3.98;54.42;96427.78;7394322;19;1025;-65
2024/03/20 01:07:06;;;;;;;;;;;;;;;3.89;54.38;96431.34;7394816;19;1040;-69
2024/03/20 01:09:35;;;;;;;;;;;;;;;3.93;54.11;96430.41;7394674;19;1793;-66
2024/03/20 01:12:03;;;;;;;;;;;;;;;3.99;53.85;96429.47;7392464;19;1120;-68
2024/03/20 01:14:32;;;;;;;;;;;;;;;4.03;54.27;96431.13;7394157;19;1057;-67
2024/03/20 01:17:04;;;;;;;;;;;;;;;3.98;53.62;96426.06;7392907;19;1850;-68
2024/03/20 01:19:33;;;;;;;;;;;;;;;3.96;54.17;96430.38;7394055;19;1038;-69
2024/03/20 01:22:01;;;;;;;;;;;;;;;3.94;54.28;96431.28;7394164;19;957;-68
2024/03/20 01:24:30;;;;;;;;;;;;;;;3.94;53.93;96426.94;7393892;19;934;-64
2024/03/20 01:26:59;;;;;;;;;;;;;;;3.91;53.97;96426.97;7393752;19;1139;-67
2024/03/20 01:29:28;;;;;;;;;;;;;;;3.86;53.95;96426.22;7394207;19;976;-67
2024/03/20 01:31:56;;;;;;;;;;;;;;;3.94;54.11;96426.94;7393716;19;1049;-66
2024/03/20 01:34:27;;;;;;;;;;;;;;;3.79;53.74;96426.28;7393673;19;1111;-63
2024/03/20 01:36:56;;;;;;;;;;;;;;;3.94;53.85;96426.13;7392157;19;1957;-65
2024/03/20 01:39:24;;;;;;;;;;;;;;;3.91;53.81;96427.84;7393567;19;1277;-67
2024/03/20 01:41:53;;;;;;;;;;;;;;;3.87;53.71;96427.91;7393433;19;1013;-69
2024/03/20 01:44:24;;;;;;;;;;;;;;;3.90;53.86;96430.47;7393403;19;1041;-68
2024/03/20 01:46:53;;;;;;;;;;;;;;;4.00;53.73;96431.22;7393236;19;1065;-69
2024/03/20 01:49:22;;;;;;;;;;;;;;;4.07;53.20;96425.06;7393708;19;1012;-65
2024/03/20 01:51:53;;;;;;;;;;;;;;;4.10;52.83;96432.78;7393171;19;1159;-69
2024/03/20 01:54:22;;;;;;;;;;;;;;;4.10;52.61;96426.75;7393108;19;1084;-66
2024/03/20 01:56:53;;;;;;;;;;;;;;;4.08;52.46;96426.78;7396480;19;1838;-67
2024/03/20 01:59:21;;;;;;;;;;;;;;;4.15;53.32;96423.22;7400484;19;1128;-68
2024/03/20 02:01:50;;;;;;;;;;;;;;;4.12;52.52;96428.44;7400615;19;2090;-66
2024/03/20 02:04:18;;;;;;;;;;;;;;;4.14;52.91;96421.50;7400290;19;1053;-67
2024/03/20 02:06:47;;;;;;;;;;;;;;;4.08;51.74;96424.19;7400367;19;978;-65
2024/03/20 02:09:18;;;;;;;;;;;;;;;3.99;51.92;96432.94;7400308;19;1811;-68
2024/03/20 02:11:47;;;;;;;;;;;;;;;4.00;51.73;96437.22;7398338;19;1096;-64
2024/03/20 02:14:15;;;;;;;;;;;;;;;3.94;51.33;96434.72;7399991;19;1119;-66
2024/03/20 02:16:44;;;;;;;;;;;;;;;3.93;51.42;96440.78;7398703;19;1909;-62
2024/03/20 02:19:12;;;;;;;;;;;;;;;3.84;51.80;96430.53;7400178;19;1737;-66
2024/03/20 02:21:44;;;;;;;;;;;;;;;3.92;52.22;96433.91;7399821;19;1116;-66
2024/03/20 02:24:13;;;;;;;;;;;;;;;3.98;52.12;96436.41;7399704;19;1033;-67
2024/03/20 02:26:41;;;;;;;;;;;;;;;4.06;51.14;96432.84;7400391;19;1671;-68
2024/03/20 02:29:10;;;;;;;;;;;;;;;4.01;51.12;96441.50;7400140;19;1651;-64
2024/03/20 02:31:38;;;;;;;;;;;;;;;3.99;51.48;96450.19;7399703;19;1815;-67
2024/03/20 02:34:07;;;;;;;;;;;;;;;4.04;51.07;96449.25;7399706;19;1911;-65
2024/03/20 02:36:35;;;;;;;;;;;;;;;3.97;50.25;96450.22;7398096;19;1983;-63
2024/03/20 02:39:07;;;;;;;;;;;;;;;3.94;50.88;96439.06;7399557;19;1058;-69
2024/03/20 02:41:35;;;;;;;;;;;;;;;3.89;50.57;96447.72;7399444;19;959;-67
2024/03/20 02:44:04;;;;;;;;;;;;;;;3.79;51.16;96452.16;7398979;19;1227;-66
2024/03/20 02:46:32;;;;;;;;;;;;;;;3.76;51.72;96451.31;7399271;19;889;-67
2024/03/20 02:49:01;;;;;;;;;;;;;;;3.75;50.94;96453.06;7399113;19;1903;-67
2024/03/20 02:51:29;;;;;;;;;;;;;;;3.74;50.54;96453.09;7398721;19;1009;-66
2024/03/20 02:53:58;;;;;;;;;;;;;;;3.87;50.30;96446.88;7399010;19;1044;-69
2024/03/20 02:56:29;;;;;;;;;;;;;;;3.92;50.93;96458.03;7397703;19;1864;-67
2024/03/20 02:58:58;;;;;;;;;;;;;;;3.97;50.02;96463.16;7398508;19;1077;-67
2024/03/20 03:01:27;;;;;;;;;;;;;;;4.04;50.13;96467.38;7398726;19;1791;-65
2024/03/20 03:03:55;;;;;;;;;;;;;;;4.06;49.91;96469.94;7398587;19;2112;-67
2024/03/20 03:06:24;;;;;;;;;;;;;;;4.12;48.92;96469.84;7397413;19;888;-65
2024/03/20 03:08:53;;;;;;;;;;;;;;;4.07;50.00;96474.25;7398115;19;1041;-66
2024/03/20 03:11:22;;;;;;;;;;;;;;;4.08;49.78;96485.44;7397007;19;1113;-66
2024/03/20 03:13:53;;;;;;;;;;;;;;;4.08;48.99;96490.63;7397986;19;981;-64
2024/03/20 03:16:22;;;;;;;;;;;;;;;4.07;50.97;96488.94;7397316;19;1838;-65
2024/03/20 03:18:50;;;;;;;;;;;;;;;4.02;50.33;96484.66;7398347;19;1629;-65
2024/03/20 03:21:19;;;;;;;;;;;;;;;4.08;51.25;96482.88;7398113;19;932;-67
2024/03/20 03:23:47;;;;;;;;;;;;;;;4.03;50.11;96488.97;7398226;19;1098;-69
2024/03/20 03:26:16;;;;;;;;;;;;;;;4.02;50.17;96495.03;7398075;19;1043;-71
2024/03/20 03:28:44;;;;;;;;;;;;;;;3.88;49.48;96492.59;7397850;19;1982;-68
2024/03/20 03:31:15;;;;;;;;;;;;;;;3.88;50.08;96495.19;7397904;19;974;-64
2024/03/20 03:33:44;;;;;;;;;;;;;;;3.77;50.45;96500.47;7397864;19;1021;-70
2024/03/20 03:36:13;;;;;;;;;;;;;;;3.78;51.18;96493.59;7397105;19;1837;-62
2024/03/20 03:38:41;;;;;;;;;;;;;;;3.79;49.86;96501.31;7397624;19;1030;-68
2024/03/20 03:41:10;;;;;;;;;;;;;;;3.74;51.17;96499.66;7397113;19;1120;-70
2024/03/20 03:43:38;;;;;;;;;;;;;;;3.74;51.45;96505.72;7397073;19;1071;-68
2024/03/20 03:46:07;;;;;;;;;;;;;;;3.74;50.44;96508.31;7396908;19;1116;-68
2024/03/20 03:48:38;;;;;;;;;;;;;;;3.75;51.38;96509.13;7397641;19;1643;-67
2024/03/20 03:51:06;;;;;;;;;;;;;;;3.77;52.05;96516.00;7397199;19;1055;-69
2024/03/20 03:53:36;;;;;;;;;;;;;;;3.71;52.95;96515.22;7397020;19;1921;-64
2024/03/20 03:56:04;;;;;;;;;;;;;;;3.69;53.97;96520.41;7396743;19;1860;-64
2024/03/20 03:58:33;;;;;;;;;;;;;;;3.63;53.64;96523.94;7396449;19;1131;-71
2024/03/20 04:01:01;;;;;;;;;;;;;;;3.54;54.39;96532.66;7396367;19;1037;-66
2024/03/20 04:03:30;;;;;;;;;;;;;;;3.37;55.18;96529.38;7396790;19;1001;-64
2024/03/20 04:06:03;;;;;;;;;;;;;;;3.23;55.38;96529.50;7396555;19;1940;-68
2024/03/20 04:08:32;;;;;;;;;;;;;;;3.15;56.44;96538.19;7396202;19;1037;-68
2024/03/20 04:11:00;;;;;;;;;;;;;;;3.03;57.00;96541.72;7394965;19;1172;-71
2024/03/20 04:13:28;;;;;;;;;;;;;;;2.96;56.56;96554.69;7396469;19;957;-66
2024/03/20 04:15:54;;;;;;;;;;;;;;;2.85;56.94;96545.28;7395916;19;1108;-65
2024/03/20 04:18:23;;;;;;;;;;;;;;;2.81;57.42;96548.78;7391996;19;1841;-63
2024/03/20 04:20:52;;;;;;;;;;;;;;;2.69;58.21;96544.56;7396165;19;1016;-68
2024/03/20 04:23:23;;;;;;;;;;;;;;;2.60;58.42;96547.19;7395687;19;1175;-66
2024/03/20 04:25:51;;;;;;;;;;;;;;;2.49;58.92;96544.66;7395982;19;1036;-69
2024/03/20 04:28:20;;;;;;;;;;;;;;;2.35;59.16;96542.19;7395767;19;1826;-69
2024/03/20 04:30:48;;;;;;;;;;;;;;;2.32;60.01;96552.50;7395680;19;1851;-68
2024/03/20 04:33:17;;;;;;;;;;;;;;;2.15;59.14;96553.44;7395417;19;1120;-69
2024/03/20 04:35:46;;;;;;;;;;;;;;;2.09;59.90;96556.03;7395700;19;1040;-66
2024/03/20 04:38:14;;;;;;;;;;;;;;;2.00;60.28;96557.81;7394122;19;1846;-64
